createdAt,value
2023-02-23T00:01:19.581Z,64.10
2023-02-23T00:03:46.883Z,64.38
2023-02-23T00:06:13.665Z,64.30
2023-02-23T00:08:40.510Z,64.36
2023-02-23T00:11:11.502Z,64.36
2023-02-23T00:13:39.648Z,64.46
2023-02-23T00:16:13.465Z,64.56
2023-02-23T00:18:48.514Z,64.64
2023-02-23T00:21:18.573Z,64.78
2023-02-23T00:23:57.305Z,64.59
2023-02-23T00:26:30.273Z,64.68
2023-02-23T00:28:58.017Z,64.86
2023-02-23T00:31:26.148Z,64.73
2023-02-23T00:33:58.669Z,64.67
2023-02-23T00:36:28.203Z,64.76
2023-02-23T00:38:56.768Z,64.94
2023-02-23T00:41:28.425Z,64.71
2023-02-23T00:43:57.072Z,64.67
2023-02-23T00:46:27.306Z,64.68
2023-02-23T00:48:58.027Z,64.92
2023-02-23T00:51:32.944Z,64.79
2023-02-23T00:54:00.246Z,64.73
2023-02-23T00:56:27.593Z,64.67
2023-02-23T00:58:54.450Z,64.72
2023-02-23T01:01:21.902Z,64.87
2023-02-23T01:03:48.944Z,64.74
2023-02-23T01:06:17.286Z,64.90
2023-02-23T01:08:46.226Z,64.79
2023-02-23T01:11:15.764Z,64.86
2023-02-23T01:13:44.784Z,64.70
2023-02-23T01:16:14.918Z,64.76
2023-02-23T01:18:44.421Z,64.90
2023-02-23T01:21:19.360Z,64.80
2023-02-23T01:23:45.964Z,64.98
2023-02-23T01:26:20.166Z,64.89
2023-02-23T01:28:54.632Z,65.04
2023-02-23T01:31:22.971Z,64.92
2023-02-23T01:33:54.432Z,64.95
2023-02-23T01:36:21.434Z,64.89
2023-02-23T01:38:49.142Z,64.93
2023-02-23T01:41:16.472Z,65.05
2023-02-23T01:44:27.990Z,64.83
2023-02-23T01:46:54.377Z,64.83
2023-02-23T01:49:27.867Z,64.44
2023-02-23T01:52:16.686Z,64.96
2023-02-23T01:54:50.362Z,64.82
2023-02-23T01:57:20.433Z,64.87
2023-02-23T01:59:49.386Z,65.06
2023-02-23T02:02:23.026Z,64.92
2023-02-23T02:04:52.033Z,65.04
2023-02-23T02:07:23.611Z,65.03
2023-02-23T02:10:11.692Z,64.97
2023-02-23T02:12:54.780Z,64.85
2023-02-23T02:15:25.905Z,65.16
2023-02-23T02:18:18.478Z,64.95
2023-02-23T02:21:12.428Z,64.89
2023-02-23T02:23:42.032Z,65.17
2023-02-23T02:26:33.423Z,64.96
2023-02-23T02:29:50.350Z,65.21
2023-02-23T02:32:39.336Z,65.12
2023-02-23T02:35:42.984Z,64.99
2023-02-23T02:38:43.429Z,64.96
2023-02-23T02:41:19.720Z,65.04
2023-02-23T02:43:54.796Z,65.25
2023-02-23T02:46:33.288Z,65.12
2023-02-23T02:49:03.849Z,65.16
2023-02-23T02:51:39.581Z,65.43
2023-02-23T02:54:10.418Z,65.39
2023-02-23T02:56:40.515Z,65.37
2023-02-23T02:59:37.996Z,65.19
2023-02-23T03:02:23.838Z,65.43
2023-02-23T03:05:08.662Z,65.41
2023-02-23T03:08:09.301Z,65.28
2023-02-23T03:11:04.643Z,65.33
2023-02-23T03:14:11.438Z,65.28
2023-02-23T03:17:08.714Z,65.46
2023-02-23T03:20:06.600Z,65.36
2023-02-23T03:23:12.098Z,65.36
2023-02-23T03:26:30.120Z,65.42
2023-02-23T03:29:25.902Z,65.33
2023-02-23T03:32:37.248Z,65.56
2023-02-23T03:35:39.911Z,65.36
2023-02-23T03:38:41.227Z,65.53
2023-02-23T03:41:29.659Z,65.49
2023-02-23T03:44:20.219Z,65.44
2023-02-23T03:47:06.384Z,65.80
2023-02-23T03:49:55.664Z,65.75
2023-02-23T03:52:50.549Z,65.73
2023-02-23T03:55:40.241Z,65.73
2023-02-23T03:58:30.586Z,65.68
2023-02-23T04:01:20.263Z,65.80
2023-02-23T04:04:09.822Z,65.78
2023-02-23T04:06:58.005Z,65.62
2023-02-23T04:09:43.320Z,66.51
2023-02-23T04:12:34.559Z,65.91
2023-02-23T04:15:15.423Z,65.99
2023-02-23T04:17:43.030Z,66.10
2023-02-23T04:20:12.152Z,66.08
2023-02-23T04:22:39.022Z,66.20
2023-02-23T04:25:06.161Z,66.26
2023-02-23T04:27:32.503Z,66.33
2023-02-23T04:29:58.916Z,66.19
2023-02-23T04:32:25.408Z,66.09
2023-02-23T04:34:51.832Z,66.17
2023-02-23T04:37:18.224Z,66.32
2023-02-23T04:39:48.459Z,66.08
2023-02-23T04:42:15.825Z,66.29
2023-02-23T04:44:42.302Z,66.24
2023-02-23T04:47:08.833Z,66.22
2023-02-23T04:49:35.160Z,66.14
2023-02-23T04:52:01.577Z,66.17
2023-02-23T04:54:28.041Z,66.19
2023-02-23T04:56:54.473Z,66.17
2023-02-23T04:59:20.818Z,66.22
2023-02-23T05:01:47.167Z,66.22
2023-02-23T05:04:13.537Z,66.45
2023-02-23T05:06:39.988Z,66.41
2023-02-23T05:09:09.382Z,66.51
2023-02-23T05:11:35.683Z,66.53
2023-02-23T05:14:02.047Z,66.52
2023-02-23T05:16:28.362Z,66.64
2023-02-23T05:18:54.689Z,66.78
2023-02-23T05:21:21.320Z,66.63
2023-02-23T05:23:48.376Z,66.70
2023-02-23T05:26:14.900Z,66.53
2023-02-23T05:28:42.422Z,66.72
2023-02-23T05:31:09.776Z,66.70
2023-02-23T05:33:42.605Z,66.69
2023-02-23T05:36:13.549Z,66.60
2023-02-23T05:38:40.800Z,66.90
2023-02-23T05:41:18.621Z,66.95
2023-02-23T05:43:45.221Z,66.85
2023-02-23T05:46:15.172Z,66.90
2023-02-23T05:48:42.017Z,66.83
2023-02-23T05:51:11.081Z,66.86
2023-02-23T05:53:37.687Z,66.93
2023-02-23T05:56:06.438Z,67.04
2023-02-23T05:58:32.932Z,67.01
2023-02-23T06:00:59.506Z,67.22
2023-02-23T06:03:25.978Z,67.10
2023-02-23T06:05:54.105Z,66.95
2023-02-23T06:08:20.670Z,67.13
2023-02-23T06:10:47.561Z,67.20
2023-02-23T06:13:14.597Z,67.31
2023-02-23T06:15:41.382Z,67.34
2023-02-23T06:18:08.992Z,67.29
2023-02-23T06:20:36.053Z,67.22
2023-02-23T06:23:02.895Z,67.08
2023-02-23T06:25:29.324Z,67.41
2023-02-23T06:27:56.006Z,67.07
2023-02-23T06:30:22.681Z,67.32
2023-02-23T06:32:49.382Z,67.34
2023-02-23T06:35:15.842Z,67.28
2023-02-23T06:37:43.275Z,67.31
2023-02-23T06:40:10.485Z,67.24
2023-02-23T06:42:36.854Z,67.28
2023-02-23T06:45:04.642Z,67.28
2023-02-23T06:47:31.173Z,67.14
2023-02-23T06:49:57.577Z,67.21
2023-02-23T06:52:26.181Z,67.13
2023-02-23T06:54:52.514Z,67.18
2023-02-23T06:57:19.290Z,67.13
2023-02-23T06:59:45.637Z,67.05
2023-02-23T07:02:13.332Z,67.07
2023-02-23T07:04:39.750Z,66.86
2023-02-23T07:07:06.349Z,67.07
2023-02-23T07:09:32.766Z,66.85
2023-02-23T07:12:00.063Z,66.81
2023-02-23T07:14:27.335Z,66.82
2023-02-23T07:16:54.395Z,66.60
2023-02-23T07:19:21.233Z,66.83
2023-02-23T07:21:47.584Z,66.74
2023-02-23T07:24:14.039Z,66.99
2023-02-23T07:26:43.396Z,66.81
2023-02-23T07:29:10.002Z,66.85
2023-02-23T07:31:37.627Z,66.84
2023-02-23T07:34:04.094Z,66.70
2023-02-23T07:36:30.397Z,66.71
2023-02-23T07:38:57.446Z,66.52
2023-02-23T07:41:23.864Z,66.42
2023-02-23T07:43:50.210Z,66.62
2023-02-23T07:46:17.321Z,66.51
2023-02-23T07:48:44.867Z,66.47
2023-02-23T07:51:12.848Z,66.30
2023-02-23T07:53:40.823Z,66.36
2023-02-23T07:56:10.834Z,66.36
2023-02-23T07:58:38.848Z,66.45
2023-02-23T08:01:05.731Z,66.45
2023-02-23T08:03:32.291Z,66.73
2023-02-23T08:05:58.991Z,66.57
2023-02-23T08:08:25.704Z,66.41
2023-02-23T08:11:00.039Z,66.59
2023-02-23T08:13:26.472Z,66.59
2023-02-23T08:15:52.879Z,66.53
2023-02-23T08:18:19.241Z,66.69
2023-02-23T08:20:45.810Z,66.44
2023-02-23T08:23:12.413Z,66.37
2023-02-23T08:25:38.813Z,66.57
2023-02-23T08:28:06.813Z,66.58
2023-02-23T08:30:33.777Z,66.42
2023-02-23T08:33:01.346Z,66.62
2023-02-23T08:35:30.972Z,66.44
2023-02-23T08:37:57.874Z,66.36
2023-02-23T08:40:24.252Z,66.50
2023-02-23T08:42:52.050Z,66.21
2023-02-23T08:45:19.451Z,66.18
2023-02-23T08:47:45.873Z,66.20
2023-02-23T08:50:13.565Z,66.31
2023-02-23T08:52:40.261Z,66.10
2023-02-23T08:55:07.480Z,66.20
2023-02-23T08:57:35.078Z,66.24
2023-02-23T09:00:02.114Z,66.32
2023-02-23T09:02:29.063Z,66.59
2023-02-23T09:04:59.016Z,66.45
2023-02-23T09:07:25.638Z,66.26
2023-02-23T09:09:56.398Z,66.29
2023-02-23T09:12:23.086Z,66.58
2023-02-23T09:14:51.215Z,66.30
2023-02-23T09:17:18.562Z,66.66
2023-02-23T09:19:44.906Z,66.22
2023-02-23T09:22:11.451Z,66.42
2023-02-23T09:24:38.473Z,66.02
2023-02-23T09:27:07.299Z,66.20
2023-02-23T09:29:34.356Z,65.98
2023-02-23T09:32:00.796Z,65.62
2023-02-23T09:34:30.649Z,65.42
2023-02-23T09:36:57.037Z,65.44
2023-02-23T09:39:36.989Z,65.57
2023-02-23T09:42:14.919Z,65.27
2023-02-23T09:45:16.408Z,65.28
2023-02-23T09:48:05.161Z,65.46
2023-02-23T09:50:34.889Z,65.42
2023-02-23T09:53:13.493Z,65.36
2023-02-23T09:55:42.802Z,65.46
2023-02-23T09:58:21.955Z,65.40
2023-02-23T10:01:01.780Z,65.38
2023-02-23T10:03:38.648Z,65.29
2023-02-23T10:06:09.998Z,65.27
2023-02-23T10:08:50.969Z,65.34
2023-02-23T10:11:30.221Z,65.36
2023-02-23T10:14:35.168Z,65.57
2023-02-23T10:17:24.090Z,65.46
2023-02-23T10:20:18.992Z,65.50
2023-02-23T10:22:49.360Z,65.22
2023-02-23T10:25:26.022Z,65.16
2023-02-23T10:27:56.059Z,64.96
2023-02-23T10:30:31.238Z,64.85
2023-02-23T10:33:22.413Z,65.05
2023-02-23T10:35:54.030Z,65.09
2023-02-23T10:38:27.508Z,65.48
2023-02-23T10:40:56.138Z,65.17
2023-02-23T10:43:22.859Z,65.16
2023-02-23T10:45:52.868Z,65.74
2023-02-23T10:48:32.564Z,65.42
2023-02-23T10:51:02.662Z,65.19
2023-02-23T10:53:37.539Z,65.13
2023-02-23T10:56:11.098Z,65.36
2023-02-23T10:58:49.398Z,65.31
2023-02-23T11:01:41.764Z,65.12
2023-02-23T11:04:27.613Z,65.22
2023-02-23T11:07:18.016Z,65.37
2023-02-23T11:09:47.778Z,65.51
2023-02-23T11:12:41.752Z,65.42
2023-02-23T11:15:35.690Z,65.28
2023-02-23T11:18:06.772Z,64.60
2023-02-23T11:20:38.421Z,64.31
2023-02-23T11:23:28.924Z,64.45
2023-02-23T11:26:00.847Z,64.43
2023-02-23T11:28:34.863Z,64.29
2023-02-23T11:31:08.801Z,64.32
2023-02-23T11:33:38.566Z,64.90
2023-02-23T11:36:14.440Z,64.99
2023-02-23T11:38:41.084Z,64.93
2023-02-23T11:41:21.104Z,64.95
2023-02-23T11:43:57.204Z,64.78
2023-02-23T11:46:26.080Z,64.79
2023-02-23T11:49:08.438Z,64.93
2023-02-23T11:51:38.536Z,65.37
2023-02-23T11:54:06.981Z,65.39
2023-02-23T11:56:35.330Z,65.17
2023-02-23T11:59:07.375Z,65.21
2023-02-23T12:01:45.261Z,65.06
2023-02-23T12:04:32.232Z,64.84
2023-02-23T12:07:34.796Z,64.18
2023-02-23T12:10:15.313Z,64.29
2023-02-23T12:13:00.488Z,64.01
2023-02-23T12:15:36.343Z,64.40
2023-02-23T12:18:06.953Z,64.40
2023-02-23T12:20:40.554Z,64.41
2023-02-23T12:23:12.117Z,64.97
2023-02-23T12:26:12.663Z,64.79
2023-02-23T12:28:48.309Z,64.56
2023-02-23T12:31:40.378Z,64.19
2023-02-23T12:34:21.301Z,63.90
2023-02-23T12:36:55.901Z,63.93
2023-02-23T12:39:33.201Z,64.23
2023-02-23T12:42:17.290Z,64.35
2023-02-23T12:44:49.955Z,64.77
2023-02-23T12:47:27.160Z,64.63
2023-02-23T12:50:13.406Z,65.34
2023-02-23T12:52:44.064Z,65.01
2023-02-23T12:55:13.110Z,65.01
2023-02-23T12:57:45.529Z,64.97
2023-02-23T13:00:45.285Z,64.58
2023-02-23T13:03:17.828Z,64.62
2023-02-23T13:05:51.896Z,64.62
2023-02-23T13:08:23.388Z,64.63
2023-02-23T13:11:08.456Z,64.33
2023-02-23T13:14:12.576Z,64.18
2023-02-23T13:16:47.686Z,64.11
2023-02-23T13:19:35.444Z,64.17
2023-02-23T13:22:11.543Z,64.41
2023-02-23T13:24:43.685Z,64.16
2023-02-23T13:27:19.476Z,64.07
2023-02-23T13:29:49.478Z,64.20
2023-02-23T13:32:22.364Z,64.11
2023-02-23T13:34:56.400Z,64.20
2023-02-23T13:37:27.515Z,64.12
2023-02-23T13:40:21.843Z,64.36
2023-02-23T13:43:17.486Z,64.31
2023-02-23T13:45:43.827Z,64.39
2023-02-23T13:48:32.330Z,64.66
2023-02-23T13:51:36.372Z,64.85
2023-02-23T13:54:16.079Z,64.15
2023-02-23T13:56:47.180Z,64.18
2023-02-23T13:59:20.262Z,63.85
2023-02-23T14:01:53.596Z,64.02
2023-02-23T14:04:26.022Z,64.25
2023-02-23T14:06:53.852Z,64.65
2023-02-23T14:09:23.828Z,64.99
2023-02-23T14:12:02.984Z,64.97
2023-02-23T14:14:32.821Z,65.10
2023-02-23T14:17:14.582Z,65.19
2023-02-23T14:19:43.073Z,65.18
2023-02-23T14:22:15.628Z,65.12
2023-02-23T14:24:42.101Z,64.83
2023-02-23T14:27:11.062Z,64.84
2023-02-23T14:30:05.129Z,64.87
2023-02-23T14:32:38.553Z,64.67
2023-02-23T14:35:05.246Z,64.75
2023-02-23T14:37:35.594Z,64.64
2023-02-23T14:40:32.100Z,64.66
2023-02-23T14:43:01.640Z,64.52
2023-02-23T14:45:44.080Z,64.39
2023-02-23T14:48:13.295Z,64.66
2023-02-23T14:50:41.281Z,64.75
2023-02-23T14:53:18.474Z,64.83
2023-02-23T14:55:45.516Z,65.11
2023-02-23T14:58:30.157Z,65.03
2023-02-23T15:00:56.489Z,65.18
2023-02-23T15:03:22.889Z,65.19
2023-02-23T15:05:57.382Z,65.29
2023-02-23T15:08:26.238Z,65.20
2023-02-23T15:11:02.769Z,65.19
2023-02-23T15:13:32.012Z,65.08
2023-02-23T15:16:03.570Z,65.15
2023-02-23T15:18:34.742Z,65.23
2023-02-23T15:21:23.962Z,65.01
2023-02-23T15:23:57.734Z,64.85
2023-02-23T15:26:34.746Z,64.79
2023-02-23T15:29:10.132Z,65.12
2023-02-23T15:31:40.896Z,65.19
2023-02-23T15:34:11.154Z,64.98
2023-02-23T15:36:39.903Z,65.15
2023-02-23T15:39:12.223Z,65.05
2023-02-23T15:41:39.362Z,64.87
2023-02-23T15:44:13.644Z,65.00
2023-02-23T15:46:41.735Z,65.16
2023-02-23T15:49:12.408Z,65.25
2023-02-23T15:51:49.459Z,65.17
2023-02-23T15:54:27.986Z,65.25
2023-02-23T15:57:02.272Z,65.11
2023-02-23T15:59:35.726Z,65.04
2023-02-23T16:02:14.459Z,65.22
2023-02-23T16:04:49.998Z,65.06
2023-02-23T16:07:20.194Z,65.08
2023-02-23T16:10:06.059Z,65.06
2023-02-23T16:12:36.927Z,64.96
2023-02-23T16:15:19.344Z,64.83
2023-02-23T16:17:48.962Z,65.00
2023-02-23T16:20:43.991Z,65.05
2023-02-23T16:23:22.218Z,65.08
2023-02-23T16:25:59.026Z,64.98
2023-02-23T16:28:31.344Z,64.93
2023-02-23T16:30:59.438Z,64.93
2023-02-23T16:33:28.543Z,64.73
2023-02-23T16:36:18.842Z,64.87
2023-02-23T16:38:57.869Z,64.95
2023-02-23T16:41:26.742Z,65.06
2023-02-23T16:43:57.574Z,64.81
2023-02-23T16:46:27.938Z,64.93
2023-02-23T16:48:54.490Z,64.96
2023-02-23T16:51:25.401Z,64.86
2023-02-23T16:53:53.535Z,64.91
2023-02-23T16:56:21.875Z,64.90
2023-02-23T16:58:56.449Z,64.94
2023-02-23T17:01:23.250Z,65.09
2023-02-23T17:03:53.212Z,64.95
2023-02-23T17:06:21.562Z,64.86
2023-02-23T17:08:57.553Z,65.01
2023-02-23T17:11:24.765Z,64.88
2023-02-23T17:13:51.128Z,65.07
2023-02-23T17:16:17.831Z,64.76
2023-02-23T17:18:44.872Z,65.07
2023-02-23T17:21:13.206Z,64.91
2023-02-23T17:23:50.780Z,64.80
2023-02-23T17:26:23.249Z,64.79
2023-02-23T17:28:49.991Z,65.03
2023-02-23T17:31:18.139Z,64.92
2023-02-23T17:33:45.562Z,65.30
2023-02-23T17:36:14.936Z,65.40
2023-02-23T17:38:44.013Z,65.37
2023-02-23T17:41:16.811Z,65.25
2023-02-23T17:43:43.354Z,65.33
2023-02-23T17:46:11.849Z,65.77
2023-02-23T17:48:39.871Z,65.48
2023-02-23T17:51:08.914Z,65.56
2023-02-23T17:53:36.093Z,65.85
2023-02-23T17:56:02.428Z,65.58
2023-02-23T17:58:29.130Z,65.90
2023-02-23T18:00:57.163Z,65.81
2023-02-23T18:03:24.868Z,65.86
2023-02-23T18:05:52.859Z,65.86
2023-02-23T18:08:20.106Z,65.89
2023-02-23T18:10:54.296Z,65.86
2023-02-23T18:13:21.429Z,65.93
2023-02-23T18:16:09.831Z,65.79
2023-02-23T18:18:42.035Z,65.85
2023-02-23T18:21:17.587Z,65.94
2023-02-23T18:23:44.181Z,65.88
2023-02-23T18:26:13.485Z,65.98
2023-02-23T18:28:44.257Z,65.95
2023-02-23T18:31:29.128Z,65.98
2023-02-23T18:33:56.547Z,65.16
2023-02-23T18:36:28.937Z,64.29
2023-02-23T18:38:57.560Z,63.84
2023-02-23T18:41:30.509Z,64.07
2023-02-23T18:43:57.875Z,64.37
2023-02-23T18:46:24.237Z,64.72
2023-02-23T18:48:55.087Z,64.80
2023-02-23T18:51:23.143Z,65.14
2023-02-23T18:53:50.531Z,65.30
2023-02-23T18:56:22.940Z,65.34
2023-02-23T18:58:50.608Z,65.61
2023-02-23T19:01:29.117Z,65.69
2023-02-23T19:03:58.465Z,65.80
2023-02-23T19:06:25.304Z,65.84
2023-02-23T19:08:54.250Z,66.13
2023-02-23T19:11:26.396Z,65.95
2023-02-23T19:13:57.799Z,66.29
2023-02-23T19:16:26.323Z,66.22
2023-02-23T19:18:53.191Z,66.32
2023-02-23T19:21:23.681Z,66.38
2023-02-23T19:23:57.534Z,66.64
2023-02-23T19:26:25.912Z,66.49
2023-02-23T19:28:52.585Z,66.63
2023-02-23T19:31:21.125Z,66.46
2023-02-23T19:33:49.536Z,66.84
2023-02-23T19:36:19.091Z,66.59
2023-02-23T19:38:48.829Z,66.65
2023-02-23T19:41:17.996Z,67.10
2023-02-23T19:43:44.752Z,66.96
2023-02-23T19:46:14.672Z,66.86
2023-02-23T19:48:41.242Z,66.36
2023-02-23T19:51:11.163Z,66.23
2023-02-23T19:53:39.870Z,66.27
2023-02-23T19:56:11.517Z,65.90
2023-02-23T19:58:38.278Z,66.18
2023-02-23T20:01:07.567Z,65.94
2023-02-23T20:03:34.703Z,66.39
2023-02-23T20:06:05.467Z,66.16
2023-02-23T20:08:31.908Z,66.01
2023-02-23T20:10:59.692Z,65.84
2023-02-23T20:13:26.630Z,65.45
2023-02-23T20:16:03.956Z,65.54
2023-02-23T20:18:30.351Z,65.55
2023-02-23T20:20:56.747Z,65.52
2023-02-23T20:23:23.152Z,65.97
2023-02-23T20:25:49.513Z,65.71
2023-02-23T20:28:16.066Z,66.03
2023-02-23T20:30:48.848Z,65.67
2023-02-23T20:33:15.411Z,65.80
2023-02-23T20:35:42.291Z,65.78
2023-02-23T20:38:08.739Z,65.73
2023-02-23T20:40:35.417Z,65.49
2023-02-23T20:43:01.849Z,65.66
2023-02-23T20:45:28.341Z,65.97
2023-02-23T20:47:56.196Z,65.86
2023-02-23T20:50:25.832Z,65.85
2023-02-23T20:52:52.193Z,65.32
2023-02-23T20:55:18.742Z,65.80
2023-02-23T20:57:47.421Z,65.54
2023-02-23T21:00:20.071Z,65.51
2023-02-23T21:02:46.437Z,65.37
2023-02-23T21:05:13.110Z,65.39
2023-02-23T21:07:40.706Z,65.41
2023-02-23T21:10:08.507Z,65.53
2023-02-23T21:12:35.465Z,65.62
2023-02-23T21:15:04.509Z,65.43
2023-02-23T21:17:30.974Z,65.52
2023-02-23T21:19:57.318Z,65.63
2023-02-23T21:22:23.659Z,65.55
2023-02-23T21:24:49.984Z,65.47
2023-02-23T21:27:16.295Z,65.15
2023-02-23T21:29:43.529Z,64.99
2023-02-23T21:32:14.476Z,65.10
2023-02-23T21:34:40.898Z,65.14
2023-02-23T21:37:07.256Z,65.12
2023-02-23T21:39:33.631Z,65.13
2023-02-23T21:42:00.344Z,65.11
2023-02-23T21:44:26.862Z,64.62
2023-02-23T21:46:53.246Z,64.24
2023-02-23T21:49:19.721Z,64.53
2023-02-23T21:51:46.085Z,64.70
2023-02-23T21:54:12.440Z,64.59
2023-02-23T21:56:38.866Z,64.45
2023-02-23T21:59:10.810Z,64.83
2023-02-23T22:01:39.378Z,64.69
2023-02-23T22:04:08.439Z,64.70
2023-02-23T22:06:38.801Z,65.18
2023-02-23T22:09:07.008Z,65.13
2023-02-23T22:11:37.295Z,65.45
2023-02-23T22:14:06.575Z,65.66
2023-02-23T22:16:38.153Z,65.34
2023-02-23T22:19:05.958Z,65.17
2023-02-23T22:21:35.541Z,65.52
2023-02-23T22:24:05.240Z,65.52
2023-02-23T22:26:37.359Z,65.27
2023-02-23T22:29:05.249Z,65.35
2023-02-23T22:31:31.930Z,65.77
2023-02-23T22:33:58.346Z,65.79
2023-02-23T22:36:25.140Z,65.27
2023-02-23T22:38:51.640Z,65.37
2023-02-23T22:41:18.025Z,66.00
2023-02-23T22:43:45.927Z,65.93
2023-02-23T22:46:13.699Z,66.33
2023-02-23T22:48:44.739Z,66.83
2023-02-23T22:51:16.332Z,66.76
2023-02-23T22:53:43.518Z,66.77
2023-02-23T22:56:10.287Z,67.23
2023-02-23T22:58:36.830Z,67.10
2023-02-23T23:01:05.772Z,67.15
2023-02-23T23:03:38.042Z,67.32
2023-02-23T23:06:07.961Z,67.36
2023-02-23T23:08:38.924Z,67.15
2023-02-23T23:11:11.269Z,67.63
2023-02-23T23:13:44.276Z,67.31
2023-02-23T23:16:16.951Z,67.30
2023-02-23T23:18:54.479Z,67.13
2023-02-23T23:21:24.113Z,66.90
2023-02-23T23:23:54.149Z,66.68
2023-02-23T23:26:23.285Z,66.49
2023-02-23T23:28:52.959Z,66.55
2023-02-23T23:31:23.245Z,66.19
2023-02-23T23:33:51.492Z,66.07
2023-02-23T23:36:21.981Z,65.71
2023-02-23T23:38:50.028Z,65.68
2023-02-23T23:41:18.967Z,65.77
2023-02-23T23:43:47.052Z,65.82
2023-02-23T23:46:15.912Z,65.54
2023-02-23T23:48:42.324Z,65.83
2023-02-23T23:51:09.181Z,66.13
2023-02-23T23:53:35.525Z,66.59
2023-02-23T23:56:08.719Z,66.77
2023-02-23T23:58:35.316Z,66.55
